Time;durP1;ratioP1;P1;durP2;ratioP2;P2;SDS_P1;SDS_P2;PMS_P1;PMS_P2;Temp;Humidity;BMP_temperature;BMP_pressure;BME280_temperature;BME280_humidity;BME280_pressure;Samples;Min_cycle;Max_cycle;Signal;HPM_P1;HPM_P2
2022/04/21 00:00:49;;;;;;;9.07;8.20;;;;;;;-143.37;100.00;62585.38;5042197;28;20449;-75
2022/04/21 00:03:24;;;;;;;8.60;7.70;;;;;;;-143.37;100.00;62585.38;5044258;28;20425;-74
2022/04/21 00:06:00;;;;;;;10.30;9.30;;;;;;;-143.37;100.00;62585.38;5050350;28;20876;-74
2022/04/21 00:08:36;;;;;;;9.43;8.53;;;;;;;-143.37;100.00;62585.38;5037433;28;20825;-74
2022/04/21 00:11:11;;;;;;;9.07;8.23;;;;;;;-143.37;100.00;62585.38;5059538;28;20497;-74
2022/04/21 00:13:48;;;;;;;10.23;9.23;;;;;;;-143.37;100.00;62585.38;5036381;28;20426;-74
2022/04/21 00:16:24;;;;;;;9.70;8.87;;;;;;;-143.37;100.00;62585.38;5050034;28;20449;-74
2022/04/21 00:19:00;;;;;;;9.60;8.60;;;;;;;-143.37;100.00;62585.38;5039652;28;20452;-74
2022/04/21 00:24:25;;;;;;;10.30;9.27;;;;;;;-143.37;100.00;62585.38;5034896;28;20924;-74
2022/04/21 00:27:01;;;;;;;10.30;9.40;;;;;;;-143.37;100.00;62585.38;5057722;28;20477;-75
2022/04/21 00:29:38;;;;;;;12.70;10.27;;;;;;;-143.37;100.00;62585.38;5038100;28;20446;-76
2022/04/21 00:32:15;;;;;;;10.63;9.53;;;;;;;-143.37;100.00;62585.38;5063235;28;20449;-76
2022/04/21 00:34:51;;;;;;;9.13;8.27;;;;;;;-143.37;100.00;62585.38;5024352;28;20937;-76
2022/04/21 00:37:27;;;;;;;10.03;8.87;;;;;;;-143.37;100.00;62585.38;5048327;28;20796;-76
2022/04/21 00:40:03;;;;;;;11.10;10.00;;;;;;;-143.37;100.00;62585.38;5067189;28;20445;-76
2022/04/21 00:42:38;;;;;;;10.90;9.90;;;;;;;-143.37;100.00;62585.38;5043123;28;20434;-76
2022/04/21 00:45:17;;;;;;;11.07;9.87;;;;;;;-143.37;100.00;62585.38;5064846;28;20927;-76
2022/04/21 00:47:54;;;;;;;9.77;8.77;;;;;;;-143.37;100.00;62585.38;5050685;28;20434;-76
2022/04/21 00:50:32;;;;;;;9.03;8.23;;;;;;;-143.37;100.00;62585.38;5054471;28;20937;-76
2022/04/21 00:53:09;;;;;;;9.50;8.50;;;;;;;-143.37;100.00;62585.38;5067029;28;20429;-76
2022/04/21 00:55:45;;;;;;;11.20;10.00;;;;;;;-143.37;100.00;62585.38;5046985;28;20451;-76
2022/04/21 00:58:21;;;;;;;10.03;8.50;;;;;;;-143.37;100.00;62585.38;5054317;28;20433;-76
2022/04/21 01:00:58;;;;;;;10.87;9.87;;;;;;;-143.37;100.00;62585.38;5046907;28;20457;-76
2022/04/21 01:03:33;;;;;;;10.20;8.90;;;;;;;-143.37;100.00;62585.38;5037895;28;20490;-76
2022/04/21 01:06:08;;;;;;;11.20;10.20;;;;;;;-143.37;100.00;62585.38;5063864;28;20473;-76
2022/04/21 01:08:44;;;;;;;11.70;10.50;;;;;;;-143.37;100.00;62585.38;5057858;28;20442;-76
2022/04/21 01:11:21;;;;;;;10.77;9.73;;;;;;;-143.37;100.00;62585.38;5060599;28;20462;-76
2022/04/21 01:13:57;;;;;;;14.43;10.90;;;;;;;-143.37;100.00;62585.38;5066850;28;20492;-76
2022/04/21 01:16:34;;;;;;;10.60;9.60;;;;;;;-143.37;100.00;62585.38;5051396;28;20460;-76
2022/04/21 01:19:09;;;;;;;13.63;11.10;;;;;;;-143.37;100.00;62585.38;5063452;28;20439;-76
2022/04/21 01:21:46;;;;;;;13.27;11.47;;;;;;;-143.37;100.00;62585.38;5057903;28;20473;-76
2022/04/21 01:24:22;;;;;;;11.10;9.80;;;;;;;-143.37;100.00;62585.38;5053505;28;20470;-76
2022/04/21 01:26:58;;;;;;;11.33;10.27;;;;;;;-143.37;100.00;62585.38;5051721;28;20446;-76
2022/04/21 01:29:33;;;;;;;12.40;10.10;;;;;;;-143.37;100.00;62585.38;5080823;28;20443;-76
2022/04/21 01:32:09;;;;;;;13.60;11.03;;;;;;;-143.37;100.00;62585.38;5064352;28;20470;-76
2022/04/21 01:34:45;;;;;;;12.77;11.47;;;;;;;-143.37;100.00;62585.38;5054213;28;20670;-76
2022/04/21 01:43:08;;;;;;;12.90;10.40;;;;;;;-143.37;100.00;62585.38;5081036;28;20430;-76
2022/04/21 01:45:44;;;;;;;11.90;10.70;;;;;;;-143.37;100.00;62585.38;5061805;28;20469;-76
2022/04/21 01:48:20;;;;;;;12.97;11.33;;;;;;;-143.37;100.00;62585.38;5046602;28;20489;-76
2022/04/21 01:50:56;;;;;;;12.43;11.17;;;;;;;-143.37;100.00;62585.38;5080229;28;20440;-76
2022/04/21 01:53:33;;;;;;;11.97;10.10;;;;;;;-143.37;100.00;62585.38;5057139;28;20430;-76
2022/04/21 01:56:09;;;;;;;12.33;11.07;;;;;;;-143.37;100.00;62585.38;5079194;28;20434;-76
2022/04/21 01:58:46;;;;;;;12.90;10.40;;;;;;;-143.37;100.00;62585.38;5078397;28;20434;-77
2022/04/21 02:01:21;;;;;;;11.93;10.83;;;;;;;-143.37;100.00;62585.38;5069365;28;20451;-76
2022/04/21 02:03:57;;;;;;;11.40;10.30;;;;;;;-143.37;100.00;62585.38;5061516;28;20462;-76
2022/04/21 02:06:32;;;;;;;13.17;10.87;;;;;;;-143.37;100.00;62585.38;5060638;28;20462;-76
2022/04/21 02:09:10;;;;;;;13.77;12.33;;;;;;;-143.37;100.00;62585.38;5050878;28;20796;-76
2022/04/21 02:11:45;;;;;;;13.37;11.97;;;;;;;-143.37;100.00;62585.38;5078359;28;20443;-76
2022/04/21 02:14:21;;;;;;;13.83;12.50;;;;;;;-143.37;100.00;62585.38;5065009;28;20441;-76
2022/04/21 02:16:57;;;;;;;13.37;11.70;;;;;;;-143.37;100.00;62585.38;5056617;28;20565;-76
2022/04/21 02:19:33;;;;;;;13.53;12.13;;;;;;;-143.37;100.00;62585.38;5052551;28;20473;-76
2022/04/21 02:22:08;;;;;;;14.37;12.10;;;;;;;-143.37;100.00;62585.38;5064840;28;20470;-76
2022/04/21 02:24:45;;;;;;;14.50;11.90;;;;;;;-143.37;100.00;62585.38;5061498;28;21127;-76
2022/04/21 02:27:20;;;;;;;14.00;11.90;;;;;;;-143.37;100.00;62585.38;5049566;28;20442;-76
2022/04/21 02:29:56;;;;;;;13.47;12.07;;;;;;;-143.37;100.00;62585.38;5060770;28;20469;-76
2022/04/21 02:32:32;;;;;;;13.60;12.17;;;;;;;-143.37;100.00;62585.38;5052187;28;20473;-76
2022/04/21 02:35:09;;;;;;;14.50;12.87;;;;;;;-143.37;100.00;62585.38;5074538;28;20433;-76
2022/04/21 02:37:46;;;;;;;13.20;11.80;;;;;;;-143.37;100.00;62585.38;5053227;28;20458;-76
2022/04/21 02:40:23;;;;;;;13.67;12.27;;;;;;;-143.37;100.00;62585.38;5062434;28;20529;-76
2022/04/21 02:42:59;;;;;;;13.80;12.50;;;;;;;-143.37;100.00;62585.38;5056009;28;20449;-76
2022/04/21 02:45:36;;;;;;;13.90;12.50;;;;;;;-143.37;100.00;62585.38;5063392;28;21177;-76
2022/04/21 02:48:11;;;;;;;15.07;13.50;;;;;;;-143.37;100.00;62585.38;5045229;28;20450;-76
2022/04/21 02:50:49;;;;;;;14.73;13.13;;;;;;;-143.37;100.00;62585.38;5042352;28;20783;-76
2022/04/21 02:59:17;;;;;;;15.13;12.97;;;;;;;-143.37;100.00;62585.38;5022267;28;20446;-76
2022/04/21 03:01:53;;;;;;;16.43;14.40;;;;;;;-143.37;100.00;62585.38;5053533;28;20447;-76
2022/04/21 03:04:28;;;;;;;14.43;12.93;;;;;;;-143.37;100.00;62585.38;5050732;28;20460;-76
2022/04/21 03:07:29;;;;;;;15.03;13.23;;;;;;;-143.37;100.00;62585.38;5064820;28;20474;-76
2022/04/21 03:10:05;;;;;;;16.30;14.30;;;;;;;-143.37;100.00;62585.38;5062735;28;20438;-76
2022/04/21 03:12:45;;;;;;;14.90;13.30;;;;;;;-143.37;100.00;62585.38;5052737;28;20435;-76
2022/04/21 03:15:21;;;;;;;15.20;13.17;;;;;;;-143.37;100.00;62585.38;5064276;28;20451;-76
2022/04/21 03:17:57;;;;;;;15.10;13.57;;;;;;;-143.37;100.00;62585.38;5077362;28;20434;-76
2022/04/21 03:26:19;;;;;;;15.50;13.10;;;;;;;-143.37;100.00;62585.38;5058472;28;20466;-76
2022/04/21 03:28:56;;;;;;;15.23;13.27;;;;;;;-143.37;100.00;62585.38;5053167;28;20430;-76
2022/04/21 03:31:32;;;;;;;14.20;12.77;;;;;;;-143.37;100.00;62585.38;5058447;28;20438;-76
2022/04/21 03:34:07;;;;;;;15.47;13.33;;;;;;;-143.37;100.00;62585.38;5057891;28;20460;-76
2022/04/21 03:36:45;;;;;;;15.00;12.40;;;;;;;-143.37;100.00;62585.38;5062032;28;20429;-76
2022/04/21 03:39:22;;;;;;;14.00;12.20;;;;;;;-143.37;100.00;62585.38;5063651;28;20446;-76
2022/04/21 03:41:57;;;;;;;15.27;13.60;;;;;;;-143.37;100.00;62585.38;5065926;28;20508;-76
2022/04/21 03:44:35;;;;;;;14.47;12.80;;;;;;;-143.37;100.00;62585.38;5078125;28;20449;-76
2022/04/21 03:47:11;;;;;;;14.57;13.10;;;;;;;-143.37;100.00;62585.38;5050295;28;20445;-76
2022/04/21 03:49:47;;;;;;;15.23;13.70;;;;;;;-143.37;100.00;62585.38;5066073;28;20433;-76
2022/04/21 03:52:23;;;;;;;15.53;13.50;;;;;;;-143.37;100.00;62585.38;5066840;28;20433;-76
2022/04/21 03:54:58;;;;;;;20.63;13.53;;;;;;;-143.37;100.00;62585.38;5065735;28;20434;-76
2022/04/21 03:57:34;;;;;;;17.67;14.83;;;;;;;-143.37;100.00;62585.38;5078580;28;20458;-76
2022/04/21 04:00:12;;;;;;;16.47;14.57;;;;;;;-143.37;100.00;62585.38;5056364;28;20436;-76
2022/04/21 04:03:17;;;;;;;19.17;15.00;;;;;;;-143.37;100.00;62585.38;5044978;28;20885;-76
2022/04/21 04:05:52;;;;;;;15.97;13.83;;;;;;;-143.37;100.00;62585.38;5059239;28;21011;-76
2022/04/21 04:11:21;;;;;;;15.07;13.50;;;;;;;-143.37;100.00;62585.38;5068640;28;20453;-76
2022/04/21 04:13:56;;;;;;;15.20;13.60;;;;;;;-143.37;100.00;62585.38;5068028;28;20449;-76
2022/04/21 04:16:35;;;;;;;16.27;13.87;;;;;;;-143.37;100.00;62585.38;5068488;28;20445;-76
2022/04/21 04:19:11;;;;;;;21.43;13.80;;;;;;;-143.37;100.00;62585.38;5067201;28;20532;-76
2022/04/21 04:21:46;;;;;;;17.27;14.40;;;;;;;-143.37;100.00;62585.38;5053188;28;20453;-76
2022/04/21 04:24:22;;;;;;;15.37;12.80;;;;;;;-143.37;100.00;62585.38;5063214;28;20438;-76
2022/04/21 04:26:57;;;;;;;16.93;14.87;;;;;;;-143.37;100.00;62585.38;5069525;28;20505;-76
2022/04/21 04:29:33;;;;;;;17.70;14.90;;;;;;;-143.37;100.00;62585.38;5067836;28;20532;-76
2022/04/21 04:32:10;;;;;;;17.53;15.33;;;;;;;-143.37;100.00;62585.38;5064703;28;20943;-76
2022/04/21 04:34:46;;;;;;;15.87;14.17;;;;;;;-143.37;100.00;62585.38;5055418;28;20682;-76
2022/04/21 04:37:22;;;;;;;17.97;14.83;;;;;;;-143.37;100.00;62585.38;5067511;28;20446;-76
2022/04/21 04:39:59;;;;;;;16.27;14.57;;;;;;;-143.37;100.00;62585.38;5068239;28;20445;-76
2022/04/21 04:42:34;;;;;;;17.83;16.03;;;;;;;-143.37;100.00;62585.38;5067656;28;20936;-76
2022/04/21 04:48:05;;;;;;;18.03;15.70;;;;;;;-143.37;100.00;62585.38;5049862;28;20858;-76
2022/04/21 04:50:44;;;;;;;17.77;15.17;;;;;;;-143.37;100.00;62585.38;5066753;28;20936;-76
2022/04/21 04:53:21;;;;;;;17.77;15.30;;;;;;;-143.37;100.00;62585.38;5073134;28;20449;-76
2022/04/21 04:55:56;;;;;;;20.00;15.37;;;;;;;-143.37;100.00;62585.38;5066520;28;20449;-76
2022/04/21 04:58:32;;;;;;;17.07;15.23;;;;;;;-143.37;100.00;62585.38;5066424;28;20433;-76
2022/04/21 05:01:07;;;;;;;15.10;13.50;;;;;;;-143.37;100.00;62585.38;5066755;28;20473;-76
2022/04/21 05:03:45;;;;;;;17.30;13.80;;;;;;;-143.37;100.00;62585.38;5063036;28;20437;-76
2022/04/21 05:06:21;;;;;;;17.30;14.77;;;;;;;-143.37;100.00;62585.38;5084461;28;20469;-76
2022/04/21 05:08:58;;;;;;;17.00;15.20;;;;;;;-143.37;100.00;62585.38;5068425;28;20445;-76
2022/04/21 05:11:33;;;;;;;16.83;15.00;;;;;;;-143.37;100.00;62585.38;5068588;28;20458;-76
2022/04/21 05:14:10;;;;;;;18.23;15.50;;;;;;;-143.37;100.00;62585.38;5082486;28;20535;-76
2022/04/21 05:16:45;;;;;;;17.23;15.43;;;;;;;-143.37;100.00;62585.38;5066951;28;20735;-76
2022/04/21 05:19:25;;;;;;;17.00;15.27;;;;;;;-143.37;100.00;62585.38;5066400;28;20434;-76
2022/04/21 05:22:02;;;;;;;17.30;15.43;;;;;;;-143.37;100.00;62585.38;5066625;28;20879;-76
2022/04/21 05:24:39;;;;;;;17.67;15.77;;;;;;;-143.37;100.00;62585.38;5066928;28;20447;-76
2022/04/21 05:27:15;;;;;;;16.77;15.03;;;;;;;-143.37;100.00;62585.38;5054235;28;20868;-76
2022/04/21 05:32:46;;;;;;;16.90;15.10;;;;;;;-143.37;100.00;62585.38;5054514;28;20442;-76
2022/04/21 05:35:24;;;;;;;18.90;15.10;;;;;;;-143.37;100.00;62585.38;5064085;28;20442;-76
2022/04/21 05:38:01;;;;;;;20.37;15.63;;;;;;;-143.37;100.00;62585.38;5067161;28;20442;-76
2022/04/21 05:40:38;;;;;;;17.30;15.50;;;;;;;-143.37;100.00;62585.38;5060877;28;21054;-76
2022/04/21 05:43:17;;;;;;;17.47;15.63;;;;;;;-143.37;100.00;62585.38;5082221;28;20835;-76
2022/04/21 05:45:53;;;;;;;17.53;15.70;;;;;;;-143.37;100.00;62585.38;5080421;28;20837;-76
2022/04/21 05:48:29;;;;;;;17.13;15.33;;;;;;;-143.37;100.00;62585.38;5060506;28;20427;-76
2022/04/21 05:51:09;;;;;;;17.10;15.40;;;;;;;-143.37;100.00;62585.38;5064990;28;20936;-76
2022/04/21 05:53:49;;;;;;;16.70;15.00;;;;;;;-143.37;100.00;62585.38;5060918;28;20445;-75
2022/04/21 05:56:25;;;;;;;18.90;15.50;;;;;;;-143.37;100.00;62585.38;5059112;28;20816;-76
2022/04/21 05:59:01;;;;;;;18.30;15.23;;;;;;;-143.37;100.00;62585.38;5066856;28;20434;-76
2022/04/21 06:01:36;;;;;;;19.80;16.80;;;;;;;-143.37;100.00;62585.38;5062422;28;20461;-75
2022/04/21 06:04:15;;;;;;;17.10;14.77;;;;;;;-143.37;100.00;62585.38;5063037;28;20478;-76
2022/04/21 06:06:52;;;;;;;17.87;15.17;;;;;;;-143.37;100.00;62585.38;5055607;28;20479;-76
2022/04/21 06:09:28;;;;;;;17.50;15.60;;;;;;;-143.37;100.00;62585.38;5068697;28;20531;-76
2022/04/21 06:12:04;;;;;;;18.80;15.37;;;;;;;-143.37;100.00;62585.38;5046171;28;20473;-75
2022/04/21 06:14:40;;;;;;;15.70;14.00;;;;;;;-143.37;100.00;62585.38;5065706;28;20492;-75
2022/04/21 06:17:17;;;;;;;16.60;14.90;;;;;;;-143.37;100.00;62585.38;5066989;28;20453;-75
2022/04/21 06:19:52;;;;;;;17.77;15.47;;;;;;;-143.37;100.00;62585.38;5067567;28;20496;-75
2022/04/21 06:22:29;;;;;;;18.97;15.33;;;;;;;-143.37;100.00;62585.38;5063896;28;21082;-76
2022/04/21 06:25:05;;;;;;;21.60;17.27;;;;;;;-143.37;100.00;62585.38;5053526;28;21066;-75
2022/04/21 06:27:44;;;;;;;16.20;14.60;;;;;;;-143.37;100.00;62585.38;5049314;28;20431;-76
2022/04/21 06:30:23;;;;;;;21.40;17.10;;;;;;;-143.37;100.00;62585.38;5065704;28;20454;-76
2022/04/21 06:32:59;;;;;;;19.00;16.97;;;;;;;-143.37;100.00;62585.38;5062910;28;20476;-75
2022/04/21 06:35:35;;;;;;;17.27;15.57;;;;;;;-143.37;100.00;62585.38;5064886;28;20761;-76
2022/04/21 06:38:12;;;;;;;15.77;13.93;;;;;;;-143.37;100.00;62585.38;5064736;28;20426;-76
2022/04/21 06:40:47;;;;;;;17.30;15.57;;;;;;;-143.37;100.00;62585.38;5074855;28;20449;-75
2022/04/21 06:49:10;;;;;;;16.40;14.80;;;;;;;-143.37;100.00;62585.38;5053276;28;20581;-76
2022/04/21 06:51:46;;;;;;;17.90;15.57;;;;;;;-143.37;100.00;62585.38;5063180;28;20534;-76
2022/04/21 06:54:23;;;;;;;18.10;15.40;;;;;;;-143.37;100.00;62585.38;5065008;28;20769;-76
2022/04/21 06:56:58;;;;;;;17.70;15.90;;;;;;;-143.37;100.00;62585.38;5067274;28;20445;-76
2022/04/21 06:59:34;;;;;;;16.30;14.60;;;;;;;-143.37;100.00;62585.38;5077384;28;20948;-76
2022/04/21 07:02:12;;;;;;;16.30;13.87;;;;;;;-143.37;100.00;62585.38;5054221;28;20455;-76
2022/04/21 07:04:47;;;;;;;16.80;14.57;;;;;;;-143.37;100.00;62585.38;5063194;28;20426;-76
2022/04/21 07:07:23;;;;;;;15.27;13.10;;;;;;;-143.37;100.00;62585.38;5067071;28;21219;-76
2022/04/21 07:10:01;;;;;;;18.67;13.83;;;;;;;-143.37;100.00;62585.38;5065077;28;20437;-76
2022/04/21 07:12:36;;;;;;;16.10;14.40;;;;;;;-143.37;100.00;62585.38;5047625;28;20455;-76
2022/04/21 07:15:14;;;;;;;16.30;13.77;;;;;;;-143.37;100.00;62585.38;5056148;28;20781;-76
2022/04/21 07:17:49;;;;;;;16.30;14.47;;;;;;;-143.37;100.00;62585.38;5063744;28;20446;-76
2022/04/21 07:20:25;;;;;;;15.60;14.00;;;;;;;-143.37;100.00;62585.38;5063910;28;20492;-76
2022/04/21 07:23:01;;;;;;;17.23;15.47;;;;;;;-143.37;100.00;62585.38;5050361;28;20425;-76
2022/04/21 07:25:39;;;;;;;18.80;14.80;;;;;;;-143.37;100.00;62585.38;5054439;28;20441;-76
2022/04/21 07:28:15;;;;;;;17.17;15.33;;;;;;;-143.37;100.00;62585.38;5047308;28;20956;-74
2022/04/21 07:30:51;;;;;;;15.80;14.23;;;;;;;-143.37;100.00;62585.38;5061951;28;20450;-74
2022/04/21 07:33:26;;;;;;;15.90;14.30;;;;;;;-143.37;100.00;62585.38;5060814;28;20442;-74
2022/04/21 07:36:02;;;;;;;15.50;14.10;;;;;;;-143.37;100.00;62585.38;5064504;28;20780;-74
2022/04/21 07:38:37;;;;;;;15.47;13.97;;;;;;;-143.37;100.00;62585.38;5063701;28;20434;-74
2022/04/21 07:41:17;;;;;;;17.00;14.20;;;;;;;-143.37;100.00;62585.38;5046261;28;20445;-74
2022/04/21 07:43:52;;;;;;;14.40;12.90;;;;;;;-143.37;100.00;62585.38;5047578;28;20465;-76
2022/04/21 07:46:28;;;;;;;14.27;12.73;;;;;;;-143.37;100.00;62585.38;5049456;28;20473;-76
2022/04/21 07:54:38;;;;;;;14.70;13.10;;;;;;;-143.37;100.00;62585.38;5053822;28;20490;-76
2022/04/21 07:57:16;;;;;;;14.67;12.87;;;;;;;-143.37;100.00;62585.38;5029827;28;20447;-76
2022/04/21 07:59:52;;;;;;;13.70;12.40;;;;;;;-143.37;100.00;62585.38;5068247;28;20477;-76
2022/04/21 08:02:27;;;;;;;13.93;12.60;;;;;;;-143.37;100.00;62585.38;5064362;28;20813;-76
2022/04/21 08:05:04;;;;;;;14.20;12.83;;;;;;;-143.37;100.00;62585.38;5040363;28;20857;-76
2022/04/21 08:07:39;;;;;;;15.00;12.70;;;;;;;-143.37;100.00;62585.38;5044534;28;20577;-76
2022/04/21 08:10:16;;;;;;;14.93;13.43;;;;;;;-143.37;100.00;62585.38;5051172;28;20449;-76
2022/04/21 08:12:53;;;;;;;14.60;13.10;;;;;;;-143.37;100.00;62585.38;5033038;28;20469;-76
2022/04/21 08:15:30;;;;;;;13.50;12.20;;;;;;;-143.37;100.00;62585.38;5027723;28;20542;-76
2022/04/21 08:18:07;;;;;;;14.10;12.70;;;;;;;-143.37;100.00;62585.38;5029011;28;20481;-76
2022/04/21 08:20:43;;;;;;;13.27;11.97;;;;;;;-143.37;100.00;62585.38;5040923;28;20890;-76
2022/04/21 08:23:18;;;;;;;13.17;11.87;;;;;;;-143.37;100.00;62585.38;5042803;28;20734;-76
2022/04/21 08:34:37;;;;;;;12.20;10.37;;;;;;;-143.37;100.00;62585.38;5042291;28;20565;-75
2022/04/21 08:37:22;;;;;;;13.10;11.80;;;;;;;-143.37;100.00;62585.38;5049938;28;20762;-75
2022/04/21 08:39:58;;;;;;;13.10;10.77;;;;;;;-143.37;100.00;62585.38;5042043;28;20483;-75
2022/04/21 08:42:36;;;;;;;12.13;10.83;;;;;;;-143.37;100.00;62585.38;5050161;28;20456;-75
2022/04/21 08:45:21;;;;;;;12.10;10.90;;;;;;;-143.37;100.00;62585.38;5060733;28;20462;-75
2022/04/21 08:47:59;;;;;;;12.60;11.30;;;;;;;-143.37;100.00;62585.38;5053027;28;20971;-77
2022/04/21 08:50:34;;;;;;;11.80;10.70;;;;;;;-143.37;100.00;62585.38;5068706;28;20541;-75
2022/04/21 08:53:11;;;;;;;13.50;12.00;;;;;;;-143.37;100.00;62585.38;5050360;28;20825;-77
2022/04/21 08:55:47;;;;;;;11.97;9.80;;;;;;;-143.37;100.00;62585.38;5047985;28;20469;-76
2022/04/21 08:58:22;;;;;;;11.47;10.30;;;;;;;-143.37;100.00;62585.38;5045603;28;20533;-77
2022/04/21 09:00:59;;;;;;;12.33;11.13;;;;;;;-143.37;100.00;62585.38;5058702;28;20776;-76
2022/04/21 09:03:36;;;;;;;12.70;11.50;;;;;;;-143.37;100.00;62585.38;5045133;28;20446;-76
2022/04/21 09:06:16;;;;;;;13.63;11.47;;;;;;;-143.37;100.00;62585.38;5022453;28;21041;-76
2022/04/21 09:09:13;;;;;;;15.23;11.63;;;;;;;-143.37;100.00;62585.38;5048834;28;20448;-76
2022/04/21 09:11:51;;;;;;;11.70;10.60;;;;;;;-143.37;100.00;62585.38;5033977;28;20809;-77
2022/04/21 09:14:26;;;;;;;12.10;10.83;;;;;;;-143.37;100.00;62585.38;5044528;28;20450;-76
2022/04/21 09:17:06;;;;;;;11.30;10.20;;;;;;;-143.37;100.00;62585.38;5052564;28;20431;-76
2022/04/21 09:19:55;;;;;;;12.40;11.20;;;;;;;-143.37;100.00;62585.38;5041782;28;20454;-74
2022/04/21 09:22:32;;;;;;;11.83;10.73;;;;;;;-143.37;100.00;62585.38;5045561;28;20809;-76
2022/04/21 09:25:09;;;;;;;12.20;11.00;;;;;;;-143.37;100.00;62585.38;5048068;28;20445;-77
2022/04/21 09:27:48;;;;;;;11.90;10.70;;;;;;;-143.37;100.00;62585.38;5049431;28;20925;-76
2022/04/21 09:30:25;;;;;;;12.97;11.67;;;;;;;-143.37;100.00;62585.38;5066932;28;20443;-76
2022/04/21 09:33:02;;;;;;;13.57;12.17;;;;;;;-143.37;100.00;62585.38;5044983;28;20444;-76
2022/04/21 09:35:40;;;;;;;14.53;12.90;;;;;;;-143.37;100.00;62585.38;5037364;28;20890;-76
2022/04/21 09:38:19;;;;;;;13.57;12.03;;;;;;;-143.37;100.00;62585.38;5061238;28;20430;-76
2022/04/21 09:40:55;;;;;;;13.20;10.60;;;;;;;-143.37;100.00;62585.38;5048854;28;20443;-77
2022/04/21 09:43:32;;;;;;;11.73;9.87;;;;;;;-143.37;100.00;62585.38;5029122;28;20470;-76
2022/04/21 09:46:11;;;;;;;11.30;10.23;;;;;;;-143.37;100.00;62585.38;5051002;28;20450;-76
2022/04/21 09:48:53;;;;;;;11.93;10.73;;;;;;;-143.37;100.00;62585.38;5039570;28;20438;-76
2022/04/21 09:51:29;;;;;;;12.17;10.90;;;;;;;-143.37;100.00;62585.38;5051172;28;20473;-76
2022/04/21 09:54:05;;;;;;;11.90;10.70;;;;;;;-143.37;100.00;62585.38;5049924;28;20457;-76
2022/04/21 09:56:41;;;;;;;11.80;10.60;;;;;;;-143.37;100.00;62585.38;5053082;28;20442;-76
2022/04/21 09:59:18;;;;;;;11.27;9.83;;;;;;;-143.37;100.00;62585.38;5061139;28;20445;-76
2022/04/21 10:01:54;;;;;;;11.30;10.20;;;;;;;-143.37;100.00;62585.38;5057768;28;20442;-76
2022/04/21 10:04:31;;;;;;;10.93;9.23;;;;;;;-143.37;100.00;62585.38;5045764;28;20669;-76
2022/04/21 10:07:08;;;;;;;9.70;8.77;;;;;;;-143.37;100.00;62585.38;5044780;28;20462;-76
2022/04/21 10:09:46;;;;;;;10.57;9.47;;;;;;;-143.37;100.00;62585.38;5052122;28;20873;-76
2022/04/21 10:12:22;;;;;;;9.10;8.30;;;;;;;-143.37;100.00;62585.38;5030290;28;20935;-76
2022/04/21 10:14:58;;;;;;;11.00;9.90;;;;;;;-143.37;100.00;62585.38;5046697;28;20530;-76
2022/04/21 10:17:33;;;;;;;10.10;9.10;;;;;;;-143.37;100.00;62585.38;5046586;28;20438;-76
2022/04/21 10:20:12;;;;;;;8.67;7.77;;;;;;;-143.37;100.00;62585.38;5039902;28;20446;-76
2022/04/21 10:22:49;;;;;;;8.70;7.90;;;;;;;-143.37;100.00;62585.38;5038061;28;20550;-76
2022/04/21 10:25:35;;;;;;;10.97;9.20;;;;;;;-143.37;100.00;62585.38;5042077;28;20538;-76
2022/04/21 10:28:38;;;;;;;8.10;7.30;;;;;;;-143.37;100.00;62585.38;5043741;28;20470;-76
2022/04/21 10:31:30;;;;;;;9.50;8.60;;;;;;;-143.37;100.00;62585.38;5043423;28;20464;-76
2022/04/21 10:34:06;;;;;;;9.53;8.40;;;;;;;-143.37;100.00;62585.38;5045410;28;20446;-76
2022/04/21 10:36:48;;;;;;;8.53;7.73;;;;;;;-143.37;100.00;62585.38;5041985;28;20430;-76
2022/04/21 10:39:26;;;;;;;8.97;7.97;;;;;;;-143.37;100.00;62585.38;5041486;28;20819;-76
2022/04/21 10:42:19;;;;;;;9.77;8.87;;;;;;;-143.37;100.00;62585.38;5046470;28;20935;-76
2022/04/21 10:44:55;;;;;;;8.50;7.43;;;;;;;-143.37;100.00;62585.38;5036939;28;20782;-76
2022/04/21 10:47:35;;;;;;;7.30;6.57;;;;;;;-143.37;100.00;62585.38;5059127;28;21016;-76
2022/04/21 10:50:17;;;;;;;7.23;6.53;;;;;;;-143.37;100.00;62585.38;5041918;28;20450;-76
2022/04/21 10:59:14;;;;;;;9.57;8.67;;;;;;;-143.37;100.00;62585.38;5032581;28;20439;-74
2022/04/21 11:01:54;;;;;;;9.90;9.00;;;;;;;-143.37;100.00;62585.38;5054682;28;20446;-75
2022/04/21 11:04:29;;;;;;;8.83;8.03;;;;;;;-143.37;100.00;62585.38;5068354;28;20469;-75
2022/04/21 11:07:07;;;;;;;9.77;8.77;;;;;;;-143.37;100.00;62585.38;5050009;28;20844;-76
2022/04/21 11:09:50;;;;;;;7.40;6.70;;;;;;;-143.37;100.00;62585.38;5028620;28;20466;-75
2022/04/21 11:12:44;;;;;;;7.40;6.33;;;;;;;-143.37;100.00;62585.38;5052322;28;20432;-75
2022/04/21 11:15:49;;;;;;;7.37;6.13;;;;;;;-143.37;100.00;62585.38;5047724;28;20442;-75
2022/04/21 11:18:30;;;;;;;7.80;7.00;;;;;;;-143.37;100.00;62585.38;5052492;28;20441;-75
2022/04/21 11:21:23;;;;;;;7.80;7.10;;;;;;;-143.37;100.00;62585.38;5049968;28;21012;-75
2022/04/21 11:24:03;;;;;;;7.20;6.50;;;;;;;-143.37;100.00;62585.38;5050974;28;20449;-75
2022/04/21 11:26:41;;;;;;;8.70;7.77;;;;;;;-143.37;100.00;62585.38;5036435;28;20541;-75
2022/04/21 11:29:19;;;;;;;6.53;5.93;;;;;;;-143.37;100.00;62585.38;5047687;28;20549;-75
2022/04/21 11:32:05;;;;;;;6.93;6.23;;;;;;;-143.37;100.00;62585.38;5050685;28;20445;-75
2022/04/21 11:34:57;;;;;;;7.50;6.80;;;;;;;-143.37;100.00;62585.38;5035255;28;20449;-75
2022/04/21 11:37:53;;;;;;;6.50;5.87;;;;;;;-143.37;100.00;62585.38;5050476;28;20446;-75
2022/04/21 11:40:32;;;;;;;5.97;5.37;;;;;;;-143.37;100.00;62585.38;5023646;28;20451;-75
2022/04/21 11:43:17;;;;;;;5.87;5.37;;;;;;;-143.37;100.00;62585.38;5033389;28;20792;-75
2022/04/21 11:45:57;;;;;;;6.90;4.57;;;;;;;-143.37;100.00;62585.38;5043550;28;20428;-76
2022/04/21 11:48:34;;;;;;;5.60;4.47;;;;;;;-143.37;100.00;62585.38;5026883;28;20487;-74
2022/04/21 11:51:13;;;;;;;5.43;4.20;;;;;;;-143.37;100.00;62585.38;5045622;28;20787;-74
2022/04/21 11:53:49;;;;;;;4.10;3.70;;;;;;;-143.37;100.00;62585.38;5040724;28;20457;-75
2022/04/21 11:56:27;;;;;;;3.77;3.47;;;;;;;-143.37;100.00;62585.38;5036714;28;20529;-74
2022/04/21 11:59:08;;;;;;;4.40;4.00;;;;;;;-143.37;100.00;62585.38;5061445;28;20442;-75
2022/04/21 12:07:36;;;;;;;4.37;3.97;;;;;;;-143.37;100.00;62585.38;5037303;28;21049;-75
2022/04/21 12:10:11;;;;;;;3.40;3.10;;;;;;;-143.37;100.00;62585.38;5048931;28;20444;-75
2022/04/21 12:12:47;;;;;;;4.00;3.60;;;;;;;-143.37;100.00;62585.38;5051013;28;20442;-75
2022/04/21 12:15:28;;;;;;;3.00;2.70;;;;;;;-143.37;100.00;62585.38;5055148;28;20785;-75
2022/04/21 12:18:05;;;;;;;2.47;2.27;;;;;;;-143.37;100.00;62585.38;5051628;28;20536;-75
2022/04/21 12:20:53;;;;;;;2.40;2.20;;;;;;;-143.37;100.00;62585.38;5054283;28;20437;-75
2022/04/21 12:23:28;;;;;;;2.00;1.90;;;;;;;-143.37;100.00;62585.38;5050374;28;20489;-75
2022/04/21 12:26:07;;;;;;;2.23;2.03;;;;;;;-143.37;100.00;62585.38;5038472;28;20443;-75
2022/04/21 12:28:48;;;;;;;2.13;1.70;;;;;;;-143.37;100.00;62585.38;5042326;28;20474;-75
2022/04/21 12:31:25;;;;;;;2.70;2.07;;;;;;;-143.37;100.00;62585.38;5053599;28;20430;-75
2022/04/21 12:34:01;;;;;;;2.57;2.20;;;;;;;-143.37;100.00;62585.38;5064212;28;20541;-75
2022/04/21 12:36:37;;;;;;;2.87;2.60;;;;;;;-143.37;100.00;62585.38;5055534;28;20441;-75
2022/04/21 12:39:15;;;;;;;2.60;2.40;;;;;;;-143.37;100.00;62585.38;5035773;28;20449;-75
2022/04/21 12:41:53;;;;;;;3.00;2.20;;;;;;;-143.37;100.00;62585.38;5052671;28;20819;-74
2022/04/21 12:44:28;;;;;;;3.03;2.43;;;;;;;-143.37;100.00;62585.38;5031071;28;20559;-75